Time;durP1;ratioP1;P1;durP2;ratioP2;P2;SDS_P1;SDS_P2;PMS_P1;PMS_P2;Temp;Humidity;BMP_temperature;BMP_pressure;BME280_temperature;BME280_humidity;BME280_pressure;Samples;Min_cycle;Max_cycle;Signal;HPM_P1;HPM_P2
2022/06/26 00:01:01;;;;;;;3.80;3.20;;;;;;;19.01;50.80;97142.85;109898;1250;71519;-75
2022/06/26 00:03:31;;;;;;;3.90;3.50;;;;;;;19.01;50.75;97143.38;110183;1248;67636;-75
2022/06/26 00:06:00;;;;;;;4.60;3.40;;;;;;;19.02;50.79;97147.88;110153;1247;68666;-74
2022/06/26 00:08:30;;;;;;;4.50;3.70;;;;;;;19.02;50.57;97150.83;110143;1250;59833;-76
2022/06/26 00:11:00;;;;;;;3.70;3.20;;;;;;;19.02;50.77;97153.81;109991;1250;59679;-76
2022/06/26 00:17:24;;;;;;;6.00;4.10;;;;;;;18.91;54.25;97166.72;110130;1250;68609;-77
2022/06/26 00:19:54;;;;;;;6.10;4.40;;;;;;;18.75;54.61;97172.63;110164;1250;68717;-79
2022/06/26 00:22:24;;;;;;;;;;;;;;;18.60;54.35;97178.26;110179;1248;59754;-72
2022/06/26 00:24:54;;;;;;;;;;;;;;;18.37;55.36;97182.52;109994;1250;59695;-77
2022/06/26 00:27:23;;;;;;;5.20;4.40;;;;;;;18.22;56.25;97191.05;110198;1246;71721;-80
2022/06/26 00:29:54;;;;;;;5.30;4.80;;;;;;;17.98;59.02;97193.27;110261;1248;67597;-76
2022/06/26 00:32:24;;;;;;;5.70;5.20;;;;;;;17.64;61.19;97200.02;110198;1247;69407;-79
2022/06/26 00:34:56;;;;;;;6.40;4.30;;;;;;;17.51;60.93;97200.42;110120;1247;59727;-78
2022/06/26 00:37:25;;;;;;;5.80;4.30;;;;;;;17.43;62.14;97203.93;110128;1250;59664;-79
2022/06/26 00:39:55;;;;;;;5.50;4.00;;;;;;;17.45;63.11;97202.00;109990;1251;70708;-77
2022/06/26 00:42:25;;;;;;;5.80;3.70;;;;;;;17.49;62.48;97198.34;109999;1246;68502;-76
2022/06/26 00:44:55;;;;;;;;;;;;;;;17.54;61.52;97200.47;110164;1249;68833;-73
2022/06/26 00:47:26;;;;;;;5.30;3.80;;;;;;;17.59;61.84;97202.83;109939;1250;59692;-79
2022/06/26 00:49:57;;;;;;;4.70;4.20;;;;;;;17.63;62.29;97206.48;110099;1249;59674;-81
2022/06/26 00:52:28;;;;;;;6.00;4.00;;;;;;;17.65;61.44;97209.89;110002;1250;70679;-80
2022/06/26 00:54:59;;;;;;;4.30;3.80;;;;;;;17.68;60.52;97209.73;109971;1250;67791;-80
2022/06/26 00:57:28;;;;;;;5.50;3.90;;;;;;;17.73;61.59;97210.99;109972;1251;69371;-80
2022/06/26 00:59:58;;;;;;;4.60;3.70;;;;;;;17.78;61.00;97205.19;109950;1250;59694;-77
2022/06/26 01:02:28;;;;;;;4.70;4.20;;;;;;;17.81;60.91;97198.53;110027;1250;59695;-79
2022/06/26 01:04:59;;;;;;;4.60;4.00;;;;;;;17.86;59.84;97196.33;109885;1251;70752;-67
2022/06/26 01:07:31;;;;;;;3.70;3.20;;;;;;;17.92;59.78;97196.23;110089;1249;67936;-78
2022/06/26 01:10:04;;;;;;;4.70;3.70;;;;;;;17.96;59.27;97199.98;109989;1251;68583;-79
2022/06/26 01:12:33;;;;;;;4.40;4.00;;;;;;;17.99;59.86;97203.16;109932;1251;59764;-80
2022/06/26 01:15:07;;;;;;;5.90;4.70;;;;;;;18.02;61.43;97202.00;110110;1250;59708;-78
2022/06/26 01:17:38;;;;;;;5.80;4.40;;;;;;;18.01;61.75;97201.34;109981;1250;71332;-80
2022/06/26 01:20:11;;;;;;;7.00;5.50;;;;;;;17.97;61.88;97204.98;109877;1251;67714;-77
2022/06/26 01:22:42;;;;;;;5.60;5.00;;;;;;;17.91;61.86;97206.89;110031;1251;69393;-80
2022/06/26 01:25:12;;;;;;;6.30;4.60;;;;;;;17.87;62.42;97211.52;110033;1250;59773;-79
2022/06/26 01:27:43;;;;;;;5.50;4.50;;;;;;;17.84;62.07;97216.74;110070;1251;59705;-74
2022/06/26 01:30:17;;;;;;;4.60;4.10;;;;;;;17.85;61.97;97220.76;109973;1250;70748;-73
2022/06/26 01:32:47;;;;;;;5.40;4.90;;;;;;;17.85;61.16;97225.13;110004;1251;68573;-76
2022/06/26 01:35:16;;;;;;;;;;;;;;;17.85;61.09;97229.60;110047;1251;69269;-79
2022/06/26 01:37:56;;;;;;;7.70;4.90;;;;;;;17.82;60.69;97231.98;109970;1250;59766;-74
2022/06/26 01:40:27;;;;;;;6.70;5.50;;;;;;;17.80;60.67;97231.47;110097;1249;59634;-73
2022/06/26 01:42:59;;;;;;;6.10;4.50;;;;;;;17.77;60.54;97232.22;110067;1250;71362;-71
2022/06/26 01:45:30;;;;;;;6.00;4.90;;;;;;;17.77;60.27;97229.61;110012;1250;68526;-77
2022/06/26 01:48:00;;;;;;;6.40;5.00;;;;;;;17.76;60.86;97229.35;110194;1251;69382;-80
2022/06/26 01:50:32;;;;;;;5.50;5.00;;;;;;;17.72;61.84;97233.98;109958;1248;59754;-77
2022/06/26 01:53:03;;;;;;;5.30;4.80;;;;;;;17.69;62.25;97233.98;109918;1251;59697;-77
2022/06/26 01:55:35;;;;;;;6.00;5.00;;;;;;;17.65;62.96;97235.69;110033;1250;71542;-79
2022/06/26 01:58:08;;;;;;;5.00;4.50;;;;;;;17.63;62.82;97236.38;110214;1249;67797;-75
2022/06/26 02:00:40;;;;;;;5.20;4.60;;;;;;;17.65;61.79;97239.13;110004;1248;69253;-78
2022/06/26 02:03:11;;;;;;;5.80;4.50;;;;;;;17.67;62.17;97240.04;110014;1251;59665;-78
2022/06/26 02:05:42;;;;;;;5.20;4.70;;;;;;;17.67;62.72;97248.46;110216;1250;59745;-71
2022/06/26 02:08:12;;;;;;;6.80;5.40;;;;;;;17.67;61.47;97243.60;109835;1251;71208;-79
2022/06/26 02:13:36;;;;;;;5.90;5.30;;;;;;;17.53;62.77;97243.71;110189;1248;68573;-79
2022/06/26 02:16:12;;;;;;;6.00;5.10;;;;;;;17.50;62.17;97243.17;110188;1248;59764;-78
2022/06/26 02:18:47;;;;;;;5.20;4.40;;;;;;;17.45;62.10;97243.38;110123;1250;59690;-78
2022/06/26 02:21:21;;;;;;;6.60;5.20;;;;;;;17.41;62.04;97244.83;109991;1251;71581;-78
2022/06/26 02:23:52;;;;;;;6.00;5.20;;;;;;;17.36;62.15;97240.50;110192;1247;67759;-79
2022/06/26 02:26:23;;;;;;;7.60;5.70;;;;;;;17.30;63.51;97243.67;109950;1250;69444;-78
2022/06/26 02:28:56;;;;;;;6.50;5.40;;;;;;;17.25;65.00;97243.61;110201;1248;59715;-79
2022/06/26 02:31:30;;;;;;;7.20;5.30;;;;;;;17.23;64.52;97248.64;110139;1248;60182;-79
2022/06/26 02:34:00;;;;;;;6.00;5.40;;;;;;;17.23;65.09;97244.79;109988;1250;71521;-79
2022/06/26 02:36:30;;;;;;;6.80;5.80;;;;;;;17.22;64.03;97246.27;109866;1248;68564;-81
2022/06/26 02:39:00;;;;;;;5.90;4.60;;;;;;;17.21;63.69;97251.85;109907;1251;69482;-79
2022/06/26 02:41:30;;;;;;;5.80;5.30;;;;;;;17.19;62.94;97251.80;110036;1250;59741;-78
2022/06/26 02:44:01;;;;;;;7.20;5.40;;;;;;;17.16;63.13;97254.06;110187;1250;59758;-80
2022/06/26 02:46:31;;;;;;;5.90;4.80;;;;;;;17.14;63.94;97251.84;109994;1250;71551;-79
2022/06/26 02:49:03;;;;;;;5.60;4.90;;;;;;;17.12;63.82;97255.10;109966;1251;67796;-78
2022/06/26 02:51:33;;;;;;;7.80;5.70;;;;;;;17.09;64.67;97261.67;110104;1250;69811;-78
2022/06/26 02:54:03;;;;;;;5.10;4.60;;;;;;;17.07;64.54;97251.14;109960;1251;59785;-80
2022/06/26 02:56:32;;;;;;;6.40;5.50;;;;;;;17.05;65.51;97255.72;110076;1250;59718;-79
2022/06/26 02:59:03;;;;;;;5.60;5.00;;;;;;;17.05;66.61;97256.13;110072;1250;71343;-80
2022/06/26 03:01:33;;;;;;;5.00;4.40;;;;;;;17.03;65.26;97256.46;110030;1251;68672;-74
2022/06/26 03:04:23;;;;;;;;;;;;;;;17.03;66.05;97262.92;109884;1251;68457;-81
2022/06/26 03:06:52;;;;;;;6.70;5.10;;;;;;;17.02;67.10;97266.95;109962;1251;59751;-79
2022/06/26 03:09:22;;;;;;;;;;;;;;;17.00;66.31;97266.42;109894;1250;59650;-78
2022/06/26 03:11:52;;;;;;;5.80;4.70;;;;;;;16.98;67.02;97263.14;109977;1251;71500;-79
2022/06/26 03:14:23;;;;;;;8.20;5.60;;;;;;;16.98;67.49;97265.98;110086;1250;68604;-81
2022/06/26 03:16:54;;;;;;;7.30;5.90;;;;;;;16.98;65.85;97265.08;109891;1250;69403;-80
2022/06/26 03:19:24;;;;;;;5.60;4.50;;;;;;;16.98;65.89;97267.75;109882;1251;59709;-79
2022/06/26 03:21:53;;;;;;;5.50;4.90;;;;;;;16.99;66.18;97271.52;109811;1251;59814;-81
2022/06/26 03:24:24;;;;;;;4.80;4.30;;;;;;;17.02;65.01;97277.55;110075;1250;71505;-79
2022/06/26 03:26:54;;;;;;;6.40;5.80;;;;;;;17.05;65.42;97277.38;110056;1251;68128;-82
2022/06/26 03:29:24;;;;;;;6.90;5.00;;;;;;;17.07;65.81;97282.64;109951;1251;68641;-82
2022/06/26 03:31:55;;;;;;;;;;;;;;;17.11;65.01;97284.58;110017;1251;59677;-80
2022/06/26 03:34:25;;;;;;;5.90;5.30;;;;;;;17.11;64.92;97284.95;109974;1251;59708;-81
2022/06/26 03:36:59;;;;;;;5.90;4.90;;;;;;;17.13;64.33;97287.30;109927;1251;71405;-82
2022/06/26 03:39:30;;;;;;;5.50;4.60;;;;;;;17.18;64.00;97292.30;110076;1251;67768;-81
2022/06/26 03:42:01;;;;;;;6.30;4.90;;;;;;;17.23;63.60;97288.91;110033;1251;69222;-82
2022/06/26 03:44:34;;;;;;;4.90;4.30;;;;;;;17.32;63.05;97293.71;109942;1250;59690;-79
2022/06/26 03:47:05;;;;;;;6.10;5.20;;;;;;;17.38;62.82;97296.19;110034;1250;59730;-81
2022/06/26 03:49:34;;;;;;;5.40;4.90;;;;;;;17.41;62.95;97295.38;110150;1250;70785;-79
2022/06/26 03:52:04;;;;;;;5.40;4.30;;;;;;;17.46;62.74;97297.48;109858;1251;68380;-75
2022/06/26 03:54:34;;;;;;;7.10;4.70;;;;;;;17.51;62.60;97297.51;109964;1251;69240;-81
2022/06/26 03:57:05;;;;;;;5.40;4.80;;;;;;;17.56;62.38;97296.70;109998;1250;59814;-82
2022/06/26 03:59:36;;;;;;;6.30;5.50;;;;;;;17.56;62.39;97300.36;110089;1250;59742;-78
2022/06/26 04:02:06;;;;;;;5.80;4.30;;;;;;;17.59;62.23;97302.14;110009;1250;71436;-81
2022/06/26 04:04:38;;;;;;;6.20;5.10;;;;;;;17.62;62.01;97304.14;109832;1251;68200;-80
2022/06/26 04:07:12;;;;;;;8.40;6.60;;;;;;;17.62;61.95;97303.79;109982;1250;69421;-78
2022/06/26 04:09:44;;;;;;;8.60;6.20;;;;;;;17.64;62.00;97306.52;110020;1250;59761;-80
2022/06/26 04:12:19;;;;;;;6.80;5.70;;;;;;;17.70;61.66;97307.55;110133;1250;59681;-78
2022/06/26 04:14:49;;;;;;;7.70;5.10;;;;;;;17.78;62.23;97306.56;109932;1251;69778;-78
2022/06/26 04:17:18;;;;;;;5.90;5.10;;;;;;;17.88;62.61;97307.52;110058;1250;67726;-80
2022/06/26 04:20:09;;;;;;;6.70;5.10;;;;;;;18.01;62.22;97304.92;110099;1249;69314;-78
2022/06/26 04:22:38;;;;;;;6.30;5.40;;;;;;;18.09;63.87;97299.95;109892;1250;59786;-79
2022/06/26 04:25:12;;;;;;;7.70;5.50;;;;;;;18.16;64.15;97303.02;110141;1250;59777;-78
2022/06/26 04:27:41;;;;;;;9.00;5.80;;;;;;;18.23;64.13;97303.75;110053;1250;71546;-80
2022/06/26 04:30:12;;;;;;;6.00;4.90;;;;;;;18.27;63.97;97307.41;109909;1248;68599;-75
2022/06/26 04:32:44;;;;;;;7.70;5.40;;;;;;;18.39;63.42;97310.20;109923;1251;69015;-80
2022/06/26 04:35:14;;;;;;;5.00;4.50;;;;;;;18.56;62.77;97308.05;109997;1251;59677;-75
2022/06/26 04:37:44;;;;;;;6.30;5.40;;;;;;;18.74;61.65;97312.64;110043;1250;59745;-78
2022/06/26 04:40:14;;;;;;;6.70;5.00;;;;;;;18.92;61.25;97314.23;109970;1251;71528;-77
2022/06/26 04:42:44;;;;;;;9.50;5.30;;;;;;;19.06;59.76;97315.02;109916;1250;67935;-78
2022/06/26 04:45:15;;;;;;;5.90;4.40;;;;;;;19.20;57.55;97316.37;109988;1251;68621;-80
2022/06/26 04:47:46;;;;;;;5.00;4.00;;;;;;;19.40;58.14;97318.86;109981;1250;60019;-80
2022/06/26 04:50:18;;;;;;;6.30;4.70;;;;;;;19.59;57.98;97318.38;109806;1251;59703;-79
2022/06/26 04:52:49;;;;;;;6.60;4.30;;;;;;;19.75;57.29;97321.44;110009;1249;71370;-81
2022/06/26 04:55:19;;;;;;;5.10;4.30;;;;;;;19.88;57.16;97325.10;109959;1250;67787;-81
2022/06/26 04:57:50;;;;;;;4.90;3.40;;;;;;;20.02;56.56;97326.73;110077;1250;69430;-76
2022/06/26 05:00:19;;;;;;;4.30;3.90;;;;;;;20.17;56.09;97322.55;109957;1247;59714;-81
2022/06/26 05:03:14;;;;;;;4.40;3.60;;;;;;;20.29;54.27;97323.19;109986;1248;59676;-77
2022/06/26 05:06:07;;;;;;;6.20;4.60;;;;;;;20.44;54.51;97324.59;109807;1251;72606;-70
2022/06/26 05:08:46;;;;;;;4.80;4.00;;;;;;;20.62;54.62;97325.02;110160;1249;67719;-72
2022/06/26 05:11:19;;;;;;;4.70;3.80;;;;;;;20.86;54.05;97322.75;109903;1249;68617;-67
2022/06/26 05:13:52;;;;;;;4.50;3.90;;;;;;;21.17;53.26;97328.33;110067;1250;59745;-67
2022/06/26 05:16:38;;;;;;;5.20;3.80;;;;;;;21.45;51.60;97329.77;109974;1250;59749;-66
2022/06/26 05:19:07;;;;;;;5.50;3.80;;;;;;;21.65;51.11;97330.27;110002;1251;70574;-71
2022/06/26 05:21:36;;;;;;;;;;;;;;;21.87;51.23;97337.23;109883;1247;68548;-67
2022/06/26 05:24:06;;;;;;;4.70;3.80;;;;;;;22.00;50.02;97342.17;109920;1250;68759;-67
2022/06/26 05:26:35;;;;;;;7.30;4.00;;;;;;;22.21;49.49;97344.66;110113;1248;59669;-66
2022/06/26 05:29:05;;;;;;;5.20;3.60;;;;;;;22.31;48.46;97343.63;110182;1247;59768;-66
2022/06/26 05:31:34;;;;;;;5.60;3.60;;;;;;;22.24;48.14;97345.29;110017;1250;71817;-69
2022/06/26 05:34:03;;;;;;;5.70;4.20;;;;;;;22.39;48.58;97341.92;110209;1248;68871;-66
2022/06/26 05:36:34;;;;;;;4.60;3.70;;;;;;;22.47;48.82;97343.93;110217;1248;69463;-67
2022/06/26 05:39:06;;;;;;;4.20;3.40;;;;;;;22.60;49.09;97348.39;110197;1247;59751;-77
2022/06/26 05:41:35;;;;;;;4.90;3.50;;;;;;;22.73;48.31;97346.39;110176;1247;59755;-69
2022/06/26 05:44:05;;;;;;;5.60;3.90;;;;;;;22.83;48.46;97348.56;109941;1248;70414;-77
2022/06/26 05:46:35;;;;;;;5.50;3.80;;;;;;;22.90;47.51;97345.75;109984;1251;67699;-77
2022/06/26 05:49:24;;;;;;;4.00;3.60;;;;;;;23.02;47.59;97351.56;109735;1251;70134;-68
2022/06/26 05:52:08;;;;;;;5.30;3.30;;;;;;;23.06;46.38;97355.70;110130;1247;59809;-76
2022/06/26 05:55:00;;;;;;;6.00;3.70;;;;;;;23.22;46.81;97351.33;110119;1248;59758;-76
2022/06/26 05:57:52;;;;;;;5.80;3.90;;;;;;;23.28;46.78;97353.23;110112;1247;70862;-80
2022/06/26 06:00:53;;;;;;;4.50;3.50;;;;;;;23.43;46.35;97355.63;109760;1250;68263;-73
2022/06/26 06:03:22;;;;;;;4.70;3.60;;;;;;;23.69;45.90;97358.62;109888;1247;69340;-76
2022/06/26 06:05:55;;;;;;;4.40;3.30;;;;;;;23.85;46.08;97357.75;110089;1248;59725;-80
2022/06/26 06:08:25;;;;;;;4.90;3.10;;;;;;;24.07;45.53;97362.91;110113;1248;59675;-79
2022/06/26 06:10:55;;;;;;;4.30;3.10;;;;;;;24.21;44.58;97366.55;109976;1251;71651;-79
2022/06/26 06:13:25;;;;;;;4.60;3.40;;;;;;;24.34;44.72;97363.73;110081;1250;68379;-74
2022/06/26 06:15:54;;;;;;;4.30;3.60;;;;;;;24.41;43.15;97365.20;109925;1248;69455;-82
2022/06/26 06:18:23;;;;;;;4.50;3.50;;;;;;;24.42;42.84;97364.94;110148;1247;59747;-73
2022/06/26 06:20:52;;;;;;;5.30;3.50;;;;;;;24.26;42.45;97365.69;110169;1250;60154;-78
2022/06/26 06:23:38;;;;;;;4.20;3.60;;;;;;;23.99;42.70;97371.38;109989;1251;71609;-68
2022/06/26 06:26:07;;;;;;;4.20;3.70;;;;;;;23.85;43.35;97371.46;109953;1247;67805;-68
2022/06/26 06:28:37;;;;;;;5.40;3.00;;;;;;;23.72;43.80;97372.61;109899;1250;68578;-68
2022/06/26 06:31:09;;;;;;;4.50;3.20;;;;;;;23.69;44.30;97375.14;110233;1247;60144;-69
2022/06/26 06:33:38;;;;;;;4.70;3.70;;;;;;;23.79;44.48;97369.91;109932;1248;59665;-83
2022/06/26 06:36:08;;;;;;;4.10;3.70;;;;;;;23.95;44.27;97372.41;109858;1251;70879;-76
2022/06/26 06:38:38;;;;;;;5.70;3.70;;;;;;;24.13;43.91;97370.38;110202;1247;68608;-77
2022/06/26 06:41:08;;;;;;;3.80;3.40;;;;;;;24.28;43.58;97369.42;109912;1248;69583;-76
2022/06/26 06:43:48;;;;;;;6.30;3.90;;;;;;;24.53;43.29;97367.85;110071;1248;59740;-79
2022/06/26 06:46:25;;;;;;;4.90;3.00;;;;;;;24.78;43.14;97364.42;110160;1247;59688;-78
2022/06/26 06:49:00;;;;;;;4.70;3.30;;;;;;;25.01;43.45;97365.12;110173;1247;71648;-73
2022/06/26 06:51:32;;;;;;;4.00;3.30;;;;;;;25.16;43.19;97365.45;110046;1250;68685;-80
2022/06/26 06:54:02;;;;;;;4.30;3.20;;;;;;;25.26;43.41;97367.69;110137;1247;67979;-76
2022/06/26 06:56:32;;;;;;;3.50;3.00;;;;;;;25.46;42.84;97365.38;109920;1250;59767;-73
2022/06/26 06:59:01;;;;;;;4.30;3.30;;;;;;;25.49;42.23;97366.92;109914;1250;59725;-73
2022/06/26 07:01:30;;;;;;;3.40;3.10;;;;;;;25.66;42.17;97365.30;109912;1249;71598;-68
2022/06/26 07:04:00;;;;;;;3.30;3.00;;;;;;;25.71;42.52;97365.13;109905;1250;67928;-69
2022/06/26 07:06:30;;;;;;;3.70;3.10;;;;;;;25.77;42.29;97368.94;109982;1250;69402;-76
2022/06/26 07:08:59;;;;;;;3.60;2.50;;;;;;;25.83;41.77;97367.79;109918;1250;59720;-71
2022/06/26 07:11:30;;;;;;;4.00;3.50;;;;;;;25.85;41.57;97365.55;109888;1251;59625;-73
2022/06/26 07:13:59;;;;;;;4.00;3.10;;;;;;;25.85;41.27;97367.80;109994;1247;71569;-73
2022/06/26 07:16:29;;;;;;;4.30;3.10;;;;;;;25.94;41.22;97366.06;109988;1248;68657;-68
2022/06/26 07:18:57;;;;;;;;;;;;;;;25.99;41.51;97367.58;110152;1247;68718;-68
2022/06/26 07:21:26;;;;;;;4.50;3.70;;;;;;;26.01;41.87;97372.35;110184;1248;59780;-69
2022/06/26 07:23:55;;;;;;;6.70;3.30;;;;;;;26.07;42.13;97373.65;110022;1248;59679;-68
2022/06/26 07:26:44;;;;;;;4.70;3.20;;;;;;;26.04;41.63;97375.84;109775;1247;489113;-68
2022/06/26 07:29:13;;;;;;;5.50;4.30;;;;;;;26.07;43.09;97373.08;109962;1250;67624;-68
2022/06/26 07:31:44;;;;;;;6.90;4.50;;;;;;;25.81;44.83;97375.00;109923;1248;68669;-67
2022/06/26 07:34:17;;;;;;;4.60;3.80;;;;;;;25.64;45.49;97376.29;109962;1248;59683;-70
2022/06/26 07:36:48;;;;;;;4.90;4.40;;;;;;;25.50;46.44;97378.87;109952;1248;59724;-67
2022/06/26 07:39:20;;;;;;;4.50;4.10;;;;;;;25.46;46.19;97380.48;109945;1250;71342;-68
2022/06/26 07:41:50;;;;;;;4.90;3.70;;;;;;;25.46;45.87;97381.01;110058;1248;67820;-73
2022/06/26 07:44:18;;;;;;;3.90;3.30;;;;;;;25.49;45.22;97381.75;109978;1250;69282;-76
2022/06/26 07:46:48;;;;;;;4.90;3.60;;;;;;;25.61;45.65;97383.63;109871;1251;60018;-76
2022/06/26 07:49:25;;;;;;;6.70;4.30;;;;;;;25.68;45.88;97387.34;110045;1250;59771;-77
2022/06/26 07:51:58;;;;;;;4.20;3.70;;;;;;;25.62;45.94;97385.40;110068;1250;71544;-79
2022/06/26 07:54:28;;;;;;;5.10;3.90;;;;;;;25.68;45.75;97387.30;109859;1251;68646;-77
2022/06/26 07:56:57;;;;;;;4.90;4.00;;;;;;;25.70;45.87;97389.55;109925;1251;68707;-71
2022/06/26 07:59:25;;;;;;;;;;;;;;;25.68;46.44;97391.77;109908;1250;59712;-74
2022/06/26 08:01:54;;;;;;;4.50;3.80;;;;;;;25.56;47.41;97392.33;110050;1250;59640;-72
2022/06/26 08:04:23;;;;;;;5.40;4.20;;;;;;;25.53;47.04;97386.73;110000;1250;71376;-71
2022/06/26 08:06:53;;;;;;;6.80;4.80;;;;;;;25.39;47.54;97385.79;110032;1250;68738;-79
2022/06/26 08:09:22;;;;;;;7.30;5.30;;;;;;;25.26;48.23;97384.71;109880;1251;69814;-78
2022/06/26 08:11:50;;;;;;;5.00;4.30;;;;;;;25.11;47.34;97382.52;110028;1250;60687;-69
2022/06/26 08:14:19;;;;;;;5.60;4.50;;;;;;;25.14;47.58;97386.88;110056;1249;59670;-79
2022/06/26 08:16:48;;;;;;;5.50;4.30;;;;;;;25.02;47.79;97386.56;109787;1251;71575;-80
2022/06/26 08:19:17;;;;;;;4.40;3.50;;;;;;;25.21;46.91;97388.09;109837;1250;67978;-76
2022/06/26 08:22:01;;;;;;;4.50;3.80;;;;;;;25.32;45.98;97384.31;109863;1249;69390;-75
2022/06/26 08:24:32;;;;;;;3.30;2.90;;;;;;;25.43;45.48;97382.37;109987;1250;59709;-77
2022/06/26 08:27:02;;;;;;;5.90;3.50;;;;;;;25.53;45.24;97383.89;109956;1250;59741;-74
2022/06/26 08:29:31;;;;;;;3.70;3.40;;;;;;;25.60;45.72;97385.20;109861;1250;71846;-74
2022/06/26 08:32:01;;;;;;;4.50;3.70;;;;;;;25.74;44.35;97382.56;110123;1248;68467;-73
2022/06/26 08:34:31;;;;;;;4.90;3.80;;;;;;;25.75;43.45;97380.08;109985;1250;67474;-74
2022/06/26 08:37:00;;;;;;;4.00;3.60;;;;;;;25.86;44.35;97380.83;110025;1250;59748;-78
2022/06/26 08:39:30;;;;;;;6.10;3.90;;;;;;;26.07;43.22;97379.92;110122;1250;59809;-72
2022/06/26 08:41:59;;;;;;;4.40;3.80;;;;;;;26.09;43.82;97378.17;109933;1250;70797;-77
2022/06/26 08:44:28;;;;;;;5.90;3.90;;;;;;;26.29;43.51;97382.56;109869;1250;68669;-77
2022/06/26 08:46:58;;;;;;;5.30;4.20;;;;;;;26.43;42.81;97381.36;110052;1247;69449;-75
2022/06/26 08:49:28;;;;;;;4.80;3.70;;;;;;;26.57;42.91;97379.65;109981;1248;59720;-73
2022/06/26 08:51:59;;;;;;;5.00;3.40;;;;;;;26.74;41.87;97381.26;110186;1247;59688;-77
2022/06/26 08:54:29;;;;;;;;;;;;;;;27.11;42.10;97379.11;110168;1247;70947;-69
2022/06/26 08:56:59;;;;;;;5.20;3.50;;;;;;;27.35;40.93;97377.66;109946;1250;68051;-70
2022/06/26 08:59:30;;;;;;;4.80;3.30;;;;;;;27.55;40.96;97379.36;110172;1247;69189;-71
2022/06/26 09:01:59;;;;;;;4.10;3.70;;;;;;;27.74;39.99;97378.20;110138;1247;59712;-72
2022/06/26 09:04:28;;;;;;;4.60;3.30;;;;;;;28.07;39.80;97375.77;110198;1247;59017;-81
2022/06/26 09:06:58;;;;;;;5.30;4.20;;;;;;;28.38;39.02;97380.34;110162;1247;70839;-69
2022/06/26 09:09:28;;;;;;;3.90;3.50;;;;;;;28.55;38.62;97380.38;109958;1248;68678;-74
2022/06/26 09:12:00;;;;;;;4.70;3.80;;;;;;;28.93;38.01;97376.33;109924;1248;69292;-69
2022/06/26 09:14:30;;;;;;;3.80;3.40;;;;;;;29.60;38.16;97371.43;110135;1248;59809;-80
2022/06/26 09:17:00;;;;;;;4.50;3.70;;;;;;;30.39;36.07;97368.72;110197;1247;60547;-72
2022/06/26 09:19:36;;;;;;;4.00;3.60;;;;;;;30.61;35.44;97372.01;110191;1247;70616;-69
2022/06/26 09:22:09;;;;;;;4.50;3.80;;;;;;;31.03;34.29;97369.79;109964;1247;67825;-71
2022/06/26 09:24:40;;;;;;;4.80;4.30;;;;;;;30.85;33.36;97371.61;110221;1247;69386;-74
2022/06/26 09:27:15;;;;;;;5.80;3.60;;;;;;;30.02;35.40;97371.68;110006;1248;59739;-73
2022/06/26 09:29:50;;;;;;;4.70;4.30;;;;;;;29.85;35.69;97369.55;109996;1247;59720;-70
2022/06/26 09:32:21;;;;;;;4.70;3.90;;;;;;;29.32;36.16;97372.63;110186;1247;70758;-79
2022/06/26 09:34:53;;;;;;;5.90;4.30;;;;;;;28.97;36.28;97368.95;109895;1250;67622;-67
2022/06/26 09:37:23;;;;;;;6.20;4.80;;;;;;;29.05;37.19;97366.09;110152;1247;69520;-77
2022/06/26 09:40:15;;;;;;;7.30;5.20;;;;;;;29.32;37.21;97369.98;110225;1247;59701;-80
2022/06/26 09:42:44;;;;;;;5.20;4.50;;;;;;;29.15;37.20;97367.63;109914;1250;59684;-80
2022/06/26 09:45:13;;;;;;;;;;;;;;;28.80;38.01;97371.98;110248;1247;69772;-74
2022/06/26 09:47:44;;;;;;;7.40;5.30;;;;;;;28.28;38.81;97369.42;110020;1250;68872;-74
2022/06/26 09:50:13;;;;;;;6.90;5.90;;;;;;;28.47;38.52;97369.66;110222;1248;69596;-80
2022/06/26 09:52:43;;;;;;;7.90;7.00;;;;;;;28.39;38.14;97373.16;110028;1250;59671;-76
2022/06/26 09:55:12;;;;;;;8.70;6.70;;;;;;;28.04;39.66;97362.95;110114;1248;59702;-77
2022/06/26 09:57:44;;;;;;;6.50;4.80;;;;;;;28.16;39.23;97364.80;110047;1248;71471;-75
2022/06/26 10:00:14;;;;;;;6.60;6.00;;;;;;;28.31;39.18;97368.59;110176;1247;68673;-78
2022/06/26 10:06:25;;;;;;;7.00;6.00;;;;;;;28.30;39.24;97361.04;110002;1250;59767;-76
2022/06/26 10:08:32;;;;;;;6.00;5.40;;;;;;;28.12;39.35;97362.81;110153;1247;59745;-75
2022/06/26 10:11:03;;;;;;;11.50;6.80;;;;;;;28.30;38.79;97364.52;110173;1247;72202;-68
2022/06/26 10:13:34;;;;;;;5.70;5.00;;;;;;;27.93;39.61;97362.92;110004;1250;69275;-73
2022/06/26 10:16:15;;;;;;;5.90;5.30;;;;;;;28.15;39.76;97361.12;110162;1247;69396;-78
2022/06/26 10:18:56;;;;;;;6.60;5.90;;;;;;;27.90;39.92;97360.80;110123;1247;59802;-80
2022/06/26 10:21:25;;;;;;;6.20;5.60;;;;;;;27.54;40.71;97363.55;110163;1248;59687;-72
2022/06/26 10:24:02;;;;;;;;;;;;;;;27.79;40.31;97363.66;110177;1248;71914;-78
2022/06/26 10:26:32;;;;;;;6.30;5.10;;;;;;;27.79;39.80;97366.66;109986;1250;68678;-77
2022/06/26 10:29:03;;;;;;;5.60;5.00;;;;;;;27.43;40.44;97364.13;110078;1249;69519;-78
2022/06/26 10:31:52;;;;;;;4.70;4.30;;;;;;;27.15;40.87;97368.44;110179;1247;59693;-77
2022/06/26 10:34:23;;;;;;;5.10;4.60;;;;;;;27.19;40.97;97367.84;110186;1247;59614;-75
2022/06/26 10:37:15;;;;;;;6.20;5.60;;;;;;;27.36;41.16;97367.08;109973;1250;70811;-77
2022/06/26 10:39:53;;;;;;;4.90;4.40;;;;;;;27.16;41.55;97371.48;110031;1247;66728;-78
2022/06/26 10:45:32;;;;;;;5.40;4.80;;;;;;;27.75;39.88;97369.10;110123;1247;59667;-77
2022/06/26 10:48:06;;;;;;;7.20;4.80;;;;;;;27.46;39.79;97363.48;110120;1249;60099;-74
2022/06/26 10:50:38;;;;;;;5.30;4.80;;;;;;;27.50;39.99;97358.74;110220;1247;71005;-74
2022/06/26 10:53:13;;;;;;;4.40;4.00;;;;;;;27.53;40.24;97353.92;110213;1248;67891;-68
2022/06/26 10:55:46;;;;;;;6.20;4.70;;;;;;;28.05;39.18;97353.34;110227;1247;68696;-74
2022/06/26 10:58:38;;;;;;;4.90;4.40;;;;;;;28.38;37.99;97349.38;109911;1247;60191;-72
2022/06/26 11:01:09;;;;;;;4.90;4.20;;;;;;;28.66;37.40;97342.10;109968;1249;59683;-72
2022/06/26 11:03:41;;;;;;;5.60;5.00;;;;;;;28.52;35.86;97339.98;109972;1247;71055;-75
2022/06/26 11:06:15;;;;;;;5.00;4.50;;;;;;;28.22;36.49;97331.57;110196;1247;66883;-71
2022/06/26 11:08:48;;;;;;;5.60;5.00;;;;;;;28.10;37.50;97329.90;109975;1250;69250;-76
2022/06/26 11:11:25;;;;;;;7.90;5.40;;;;;;;27.79;37.40;97326.64;109899;1250;60039;-75
2022/06/26 11:14:09;;;;;;;7.00;6.30;;;;;;;27.70;37.14;97325.08;110184;1247;59694;-74
2022/06/26 11:16:42;;;;;;;6.50;5.90;;;;;;;27.29;37.72;97321.65;110162;1247;71529;-70
2022/06/26 11:19:26;;;;;;;7.50;6.80;;;;;;;26.72;39.01;97325.13;110172;1246;68691;-77
2022/06/26 11:22:06;;;;;;;7.30;6.70;;;;;;;26.78;39.42;97326.79;110127;1248;69449;-77
2022/06/26 11:24:47;;;;;;;6.30;5.70;;;;;;;26.95;39.19;97320.45;110143;1247;59709;-73
2022/06/26 11:27:28;;;;;;;7.30;5.90;;;;;;;27.33;39.23;97323.52;110095;1249;59738;-76
2022/06/26 11:29:57;;;;;;;7.10;6.00;;;;;;;27.44;39.04;97320.80;109997;1248;71528;-78
2022/06/26 11:32:27;;;;;;;5.90;5.20;;;;;;;27.30;39.95;97322.30;110174;1250;67651;-76
2022/06/26 11:34:56;;;;;;;;;;;;;;;27.85;39.57;97322.23;109981;1250;68674;-76
2022/06/26 11:37:35;;;;;;;;;;;;;;;28.18;38.35;97315.75;110158;1247;59722;-75
2022/06/26 11:40:14;;;;;;;5.10;4.60;;;;;;;28.63;36.80;97308.39;110032;1248;59754;-75
2022/06/26 11:42:43;;;;;;;7.00;5.50;;;;;;;29.08;36.26;97308.20;110275;1247;70859;-71
2022/06/26 11:45:24;;;;;;;;;;;;;;;29.41;35.91;97307.16;110174;1247;68656;-71
2022/06/26 11:47:53;;;;;;;6.00;5.30;;;;;;;29.06;36.37;97310.11;110181;1247;68562;-73
2022/06/26 11:50:29;;;;;;;7.30;6.10;;;;;;;28.82;36.73;97319.70;109935;1250;59702;-78
2022/06/26 11:52:59;;;;;;;6.90;5.60;;;;;;;28.65;37.08;97334.54;110234;1249;59698;-75
2022/06/26 11:55:29;;;;;;;6.30;5.70;;;;;;;28.50;37.23;97352.02;110181;1245;72208;-73
2022/06/26 11:58:01;;;;;;;5.50;5.00;;;;;;;28.21;37.85;97362.45;110195;1247;68609;-73
2022/06/26 12:00:30;;;;;;;5.40;4.30;;;;;;;28.06;37.88;97363.17;109968;1248;69433;-76
2022/06/26 12:03:01;;;;;;;;;;;;;;;27.66;38.15;97362.11;110166;1247;59761;-75
2022/06/26 12:05:30;;;;;;;5.50;4.50;;;;;;;27.15;39.94;97362.08;110129;1248;59701;-74